sensor_id;sensor_type;location;lat;lon;timestamp;temperature;humidity
18163;DHT22;9206;50.994;4.538;2023-04-24T00:01:58;9.50;99.90
18163;DHT22;9206;50.994;4.538;2023-04-24T00:04:49;9.50;99.90
18163;DHT22;9206;50.994;4.538;2023-04-24T00:07:44;9.50;99.90
18163;DHT22;9206;50.994;4.538;2023-04-24T00:10:38;9.50;99.90
18163;DHT22;9206;50.994;4.538;2023-04-24T00:13:30;9.50;99.90
18163;DHT22;9206;50.994;4.538;2023-04-24T00:16:25;9.50;99.90
18163;DHT22;9206;50.994;4.538;2023-04-24T00:19:14;9.50;99.90
18163;DHT22;9206;50.994;4.538;2023-04-24T00:22:07;9.50;99.90
18163;DHT22;9206;50.994;4.538;2023-04-24T00:24:57;9.50;99.90
18163;DHT22;9206;50.994;4.538;2023-04-24T00:27:48;9.50;99.90
18163;DHT22;9206;50.994;4.538;2023-04-24T00:30:39;9.50;99.90
18163;DHT22;9206;50.994;4.538;2023-04-24T00:33:29;9.50;99.90
18163;DHT22;9206;50.994;4.538;2023-04-24T00:36:23;9.50;99.90
18163;DHT22;9206;50.994;4.538;2023-04-24T00:39:30;9.50;99.90
18163;DHT22;9206;50.994;4.538;2023-04-24T00:42:18;9.50;99.90
18163;DHT22;9206;50.994;4.538;2023-04-24T00:45:08;9.50;99.90
18163;DHT22;9206;50.994;4.538;2023-04-24T00:48:05;9.50;99.90
18163;DHT22;9206;50.994;4.538;2023-04-24T00:51:01;9.40;99.90
18163;DHT22;9206;50.994;4.538;2023-04-24T00:53:58;9.40;99.90
18163;DHT22;9206;50.994;4.538;2023-04-24T00:56:59;9.40;99.90
18163;DHT22;9206;50.994;4.538;2023-04-24T01:00:15;9.30;99.90
18163;DHT22;9206;50.994;4.538;2023-04-24T01:03:17;9.30;99.90
18163;DHT22;9206;50.994;4.538;2023-04-24T01:06:09;9.30;99.90
18163;DHT22;9206;50.994;4.538;2023-04-24T01:08:58;9.30;99.90
18163;DHT22;9206;50.994;4.538;2023-04-24T01:11:47;9.30;99.90
18163;DHT22;9206;50.994;4.538;2023-04-24T01:14:41;9.20;99.90
18163;DHT22;9206;50.994;4.538;2023-04-24T01:17:30;9.20;99.90
18163;DHT22;9206;50.994;4.538;2023-04-24T01:20:21;9.20;99.90
18163;DHT22;9206;50.994;4.538;2023-04-24T01:23:10;9.20;99.90
18163;DHT22;9206;50.994;4.538;2023-04-24T01:25:57;9.20;99.90
18163;DHT22;9206;50.994;4.538;2023-04-24T01:29:08;9.10;99.90
18163;DHT22;9206;50.994;4.538;2023-04-24T01:31:59;9.10;99.90
18163;DHT22;9206;50.994;4.538;2023-04-24T01:34:48;9.10;99.90
18163;DHT22;9206;50.994;4.538;2023-04-24T01:37:36;9.10;99.90
18163;DHT22;9206;50.994;4.538;2023-04-24T01:40:32;9.10;99.90
18163;DHT22;9206;50.994;4.538;2023-04-24T01:43:25;9.10;99.90
18163;DHT22;9206;50.994;4.538;2023-04-24T01:46:21;9.10;99.90
18163;DHT22;9206;50.994;4.538;2023-04-24T01:49:12;9.10;99.90
18163;DHT22;9206;50.994;4.538;2023-04-24T01:52:05;9.10;99.90
18163;DHT22;9206;50.994;4.538;2023-04-24T01:54:59;9.10;99.90
18163;DHT22;9206;50.994;4.538;2023-04-24T01:57:50;9.10;99.90
18163;DHT22;9206;50.994;4.538;2023-04-24T02:00:42;9.10;99.90
18163;DHT22;9206;50.994;4.538;2023-04-24T02:03:30;9.10;99.90
18163;DHT22;9206;50.994;4.538;2023-04-24T02:06:21;9.10;99.90
18163;DHT22;9206;50.994;4.538;2023-04-24T02:09:11;9.10;99.90
18163;DHT22;9206;50.994;4.538;2023-04-24T02:12:01;9.10;99.90
18163;DHT22;9206;50.994;4.538;2023-04-24T02:14:56;9.10;99.90
18163;DHT22;9206;50.994;4.538;2023-04-24T02:17:49;9.10;99.90
18163;DHT22;9206;50.994;4.538;2023-04-24T02:20:39;9.10;99.90
18163;DHT22;9206;50.994;4.538;2023-04-24T02:23:29;9.00;99.90
18163;DHT22;9206;50.994;4.538;2023-04-24T02:26:20;8.90;99.90
18163;DHT22;9206;50.994;4.538;2023-04-24T02:29:19;8.90;99.90
18163;DHT22;9206;50.994;4.538;2023-04-24T02:32:09;8.90;99.90
18163;DHT22;9206;50.994;4.538;2023-04-24T02:35:01;8.80;99.90
18163;DHT22;9206;50.994;4.538;2023-04-24T02:37:49;8.70;99.90
18163;DHT22;9206;50.994;4.538;2023-04-24T02:40:41;8.70;99.90
18163;DHT22;9206;50.994;4.538;2023-04-24T02:43:33;8.70;99.90
18163;DHT22;9206;50.994;4.538;2023-04-24T02:46:26;8.70;99.90
18163;DHT22;9206;50.994;4.538;2023-04-24T02:49:18;8.70;99.90
18163;DHT22;9206;50.994;4.538;2023-04-24T02:52:12;8.70;99.90
18163;DHT22;9206;50.994;4.538;2023-04-24T02:55:07;8.70;99.90
18163;DHT22;9206;50.994;4.538;2023-04-24T02:57:58;8.70;99.90
18163;DHT22;9206;50.994;4.538;2023-04-24T03:00:57;8.70;99.90
18163;DHT22;9206;50.994;4.538;2023-04-24T03:03:46;8.70;99.90
18163;DHT22;9206;50.994;4.538;2023-04-24T03:06:38;8.70;99.90
18163;DHT22;9206;50.994;4.538;2023-04-24T03:09:31;8.70;99.90
18163;DHT22;9206;50.994;4.538;2023-04-24T03:12:22;8.60;99.90
18163;DHT22;9206;50.994;4.538;2023-04-24T03:15:16;8.60;99.90
18163;DHT22;9206;50.994;4.538;2023-04-24T03:18:07;8.60;99.90
18163;DHT22;9206;50.994;4.538;2023-04-24T03:20:55;8.70;99.90
18163;DHT22;9206;50.994;4.538;2023-04-24T03:23:49;8.60;99.90
18163;DHT22;9206;50.994;4.538;2023-04-24T03:26:39;8.60;99.90
18163;DHT22;9206;50.994;4.538;2023-04-24T03:29:32;8.70;99.90
18163;DHT22;9206;50.994;4.538;2023-04-24T03:32:22;8.70;99.90
18163;DHT22;9206;50.994;4.538;2023-04-24T03:35:13;8.60;99.90
18163;DHT22;9206;50.994;4.538;2023-04-24T03:38:00;8.60;99.90
18163;DHT22;9206;50.994;4.538;2023-04-24T03:40:51;8.60;99.90
18163;DHT22;9206;50.994;4.538;2023-04-24T03:44:02;8.60;99.90
18163;DHT22;9206;50.994;4.538;2023-04-24T03:46:55;8.60;99.90
18163;DHT22;9206;50.994;4.538;2023-04-24T03:49:48;8.50;99.90
18163;DHT22;9206;50.994;4.538;2023-04-24T03:52:37;8.60;99.90
18163;DHT22;9206;50.994;4.538;2023-04-24T03:55:27;8.60;99.90
18163;DHT22;9206;50.994;4.538;2023-04-24T03:58:16;8.60;99.90
18163;DHT22;9206;50.994;4.538;2023-04-24T04:01:07;8.60;99.90
18163;DHT22;9206;50.994;4.538;2023-04-24T04:03:55;8.50;99.90
18163;DHT22;9206;50.994;4.538;2023-04-24T04:06:43;8.50;99.90
18163;DHT22;9206;50.994;4.538;2023-04-24T04:09:38;8.50;99.90
18163;DHT22;9206;50.994;4.538;2023-04-24T04:12:37;8.50;99.90
18163;DHT22;9206;50.994;4.538;2023-04-24T04:15:29;8.50;99.90
18163;DHT22;9206;50.994;4.538;2023-04-24T04:18:18;8.50;99.90
18163;DHT22;9206;50.994;4.538;2023-04-24T04:21:11;8.50;99.90
18163;DHT22;9206;50.994;4.538;2023-04-24T04:24:05;8.50;99.90
18163;DHT22;9206;50.994;4.538;2023-04-24T04:27:01;8.50;99.90
18163;DHT22;9206;50.994;4.538;2023-04-24T04:29:49;8.50;99.90
18163;DHT22;9206;50.994;4.538;2023-04-24T04:32:40;8.50;99.90
18163;DHT22;9206;50.994;4.538;2023-04-24T04:35:40;8.50;99.90
18163;DHT22;9206;50.994;4.538;2023-04-24T04:38:30;8.50;99.90
18163;DHT22;9206;50.994;4.538;2023-04-24T04:41:27;8.50;99.90
18163;DHT22;9206;50.994;4.538;2023-04-24T04:44:16;8.40;99.90
18163;DHT22;9206;50.994;4.538;2023-04-24T04:47:09;8.40;99.90
18163;DHT22;9206;50.994;4.538;2023-04-24T04:50:06;8.40;99.90
18163;DHT22;9206;50.994;4.538;2023-04-24T04:53:00;8.40;99.90
18163;DHT22;9206;50.994;4.538;2023-04-24T04:55:48;8.30;99.90
18163;DHT22;9206;50.994;4.538;2023-04-24T04:58:38;8.30;99.90
18163;DHT22;9206;50.994;4.538;2023-04-24T05:01:32;8.30;99.90
18163;DHT22;9206;50.994;4.538;2023-04-24T05:04:24;8.30;99.90
18163;DHT22;9206;50.994;4.538;2023-04-24T05:07:20;8.30;99.90
18163;DHT22;9206;50.994;4.538;2023-04-24T05:10:08;8.30;99.90
18163;DHT22;9206;50.994;4.538;2023-04-24T05:12:57;8.30;99.90
18163;DHT22;9206;50.994;4.538;2023-04-24T05:15:53;8.40;99.90
18163;DHT22;9206;50.994;4.538;2023-04-24T05:18:47;8.30;99.90
18163;DHT22;9206;50.994;4.538;2023-04-24T05:21:41;8.40;99.90
18163;DHT22;9206;50.994;4.538;2023-04-24T05:24:37;8.30;99.90
18163;DHT22;9206;50.994;4.538;2023-04-24T05:27:25;8.30;99.90
18163;DHT22;9206;50.994;4.538;2023-04-24T05:30:16;8.30;99.90
18163;DHT22;9206;50.994;4.538;2023-04-24T05:33:08;8.30;99.90
18163;DHT22;9206;50.994;4.538;2023-04-24T05:39:30;8.20;99.90
18163;DHT22;9206;50.994;4.538;2023-04-24T05:42:21;8.20;99.90
18163;DHT22;9206;50.994;4.538;2023-04-24T05:46:16;8.20;99.90
18163;DHT22;9206;50.994;4.538;2023-04-24T05:49:05;8.20;99.90
18163;DHT22;9206;50.994;4.538;2023-04-24T05:51:57;8.20;99.90
18163;DHT22;9206;50.994;4.538;2023-04-24T05:54:46;8.20;99.90
18163;DHT22;9206;50.994;4.538;2023-04-24T05:57:35;8.20;99.90
18163;DHT22;9206;50.994;4.538;2023-04-24T06:00:37;8.20;99.90
18163;DHT22;9206;50.994;4.538;2023-04-24T06:03:34;8.20;99.90
18163;DHT22;9206;50.994;4.538;2023-04-24T06:06:28;8.20;99.90
18163;DHT22;9206;50.994;4.538;2023-04-24T06:09:23;8.20;99.90
18163;DHT22;9206;50.994;4.538;2023-04-24T06:12:18;8.20;99.90
18163;DHT22;9206;50.994;4.538;2023-04-24T06:15:10;8.20;99.90
18163;DHT22;9206;50.994;4.538;2023-04-24T06:18:19;8.20;99.90
18163;DHT22;9206;50.994;4.538;2023-04-24T06:21:17;8.20;99.90
18163;DHT22;9206;50.994;4.538;2023-04-24T06:24:27;8.20;99.90
18163;DHT22;9206;50.994;4.538;2023-04-24T06:31:06;8.20;99.90
18163;DHT22;9206;50.994;4.538;2023-04-24T06:34:30;8.20;99.90
18163;DHT22;9206;50.994;4.538;2023-04-24T06:37:29;8.20;99.90
18163;DHT22;9206;50.994;4.538;2023-04-24T06:40:37;8.30;99.90
18163;DHT22;9206;50.994;4.538;2023-04-24T06:44:17;8.30;99.90
18163;DHT22;9206;50.994;4.538;2023-04-24T06:47:26;8.30;99.90
18163;DHT22;9206;50.994;4.538;2023-04-24T06:50:17;8.40;99.90
18163;DHT22;9206;50.994;4.538;2023-04-24T06:53:04;8.40;99.90
18163;DHT22;9206;50.994;4.538;2023-04-24T06:56:07;8.40;99.90
18163;DHT22;9206;50.994;4.538;2023-04-24T06:59:11;8.40;99.90
18163;DHT22;9206;50.994;4.538;2023-04-24T07:02:04;8.40;99.90
18163;DHT22;9206;50.994;4.538;2023-04-24T07:05:08;8.50;99.90
18163;DHT22;9206;50.994;4.538;2023-04-24T07:08:01;8.60;99.90
18163;DHT22;9206;50.994;4.538;2023-04-24T07:10:49;8.60;99.90
18163;DHT22;9206;50.994;4.538;2023-04-24T07:17:18;8.70;99.90
18163;DHT22;9206;50.994;4.538;2023-04-24T07:20:08;8.80;99.90
18163;DHT22;9206;50.994;4.538;2023-04-24T07:22:59;8.80;99.90
18163;DHT22;9206;50.994;4.538;2023-04-24T07:26:05;8.90;99.90
18163;DHT22;9206;50.994;4.538;2023-04-24T07:28:52;9.00;99.90
18163;DHT22;9206;50.994;4.538;2023-04-24T07:31:46;9.10;99.90
18163;DHT22;9206;50.994;4.538;2023-04-24T07:34:40;9.10;99.90
18163;DHT22;9206;50.994;4.538;2023-04-24T07:37:38;9.10;99.90
18163;DHT22;9206;50.994;4.538;2023-04-24T07:40:31;9.00;99.90
18163;DHT22;9206;50.994;4.538;2023-04-24T07:43:24;9.00;99.90
18163;DHT22;9206;50.994;4.538;2023-04-24T07:46:12;9.00;99.90
18163;DHT22;9206;50.994;4.538;2023-04-24T07:49:12;8.90;99.90
18163;DHT22;9206;50.994;4.538;2023-04-24T07:52:09;8.90;99.90
18163;DHT22;9206;50.994;4.538;2023-04-24T07:55:14;8.90;99.90
18163;DHT22;9206;50.994;4.538;2023-04-24T07:58:04;8.80;99.90
18163;DHT22;9206;50.994;4.538;2023-04-24T08:00:52;8.70;99.90
18163;DHT22;9206;50.994;4.538;2023-04-24T08:03:41;8.60;99.90
18163;DHT22;9206;50.994;4.538;2023-04-24T08:06:29;8.50;99.90
18163;DHT22;9206;50.994;4.538;2023-04-24T08:09:18;8.50;99.90
18163;DHT22;9206;50.994;4.538;2023-04-24T08:12:13;8.50;99.90
18163;DHT22;9206;50.994;4.538;2023-04-24T08:15:07;8.50;99.90
18163;DHT22;9206;50.994;4.538;2023-04-24T08:18:01;8.60;99.90
18163;DHT22;9206;50.994;4.538;2023-04-24T08:21:04;8.80;99.90
18163;DHT22;9206;50.994;4.538;2023-04-24T08:24:08;9.00;99.90
18163;DHT22;9206;50.994;4.538;2023-04-24T08:27:01;9.40;99.90
18163;DHT22;9206;50.994;4.538;2023-04-24T08:29:54;9.80;99.90
18163;DHT22;9206;50.994;4.538;2023-04-24T08:33:02;11.00;99.90
18163;DHT22;9206;50.994;4.538;2023-04-24T08:35:56;12.40;99.90
18163;DHT22;9206;50.994;4.538;2023-04-24T08:38:50;13.00;99.90
18163;DHT22;9206;50.994;4.538;2023-04-24T08:41:38;14.10;99.90
18163;DHT22;9206;50.994;4.538;2023-04-24T08:44:36;14.80;99.90
18163;DHT22;9206;50.994;4.538;2023-04-24T08:47:27;15.70;99.90
18163;DHT22;9206;50.994;4.538;2023-04-24T08:50:16;15.50;99.90
18163;DHT22;9206;50.994;4.538;2023-04-24T08:53:10;14.90;99.90
18163;DHT22;9206;50.994;4.538;2023-04-24T08:56:04;13.80;99.90
18163;DHT22;9206;50.994;4.538;2023-04-24T08:58:53;13.00;99.90
18163;DHT22;9206;50.994;4.538;2023-04-24T09:01:51;12.20;99.90
18163;DHT22;9206;50.994;4.538;2023-04-24T09:04:43;11.60;99.90
18163;DHT22;9206;50.994;4.538;2023-04-24T09:07:35;11.30;99.90
18163;DHT22;9206;50.994;4.538;2023-04-24T09:10:31;11.20;99.90
18163;DHT22;9206;50.994;4.538;2023-04-24T09:13:24;11.20;99.90
18163;DHT22;9206;50.994;4.538;2023-04-24T09:16:18;12.30;99.90
18163;DHT22;9206;50.994;4.538;2023-04-24T09:19:12;14.00;99.90
18163;DHT22;9206;50.994;4.538;2023-04-24T09:22:04;16.00;99.90
18163;DHT22;9206;50.994;4.538;2023-04-24T09:25:05;17.20;99.90
18163;DHT22;9206;50.994;4.538;2023-04-24T09:28:01;18.30;99.90
18163;DHT22;9206;50.994;4.538;2023-04-24T09:31:05;19.30;99.90
18163;DHT22;9206;50.994;4.538;2023-04-24T09:34:00;18.60;99.90
18163;DHT22;9206;50.994;4.538;2023-04-24T09:36:54;17.00;99.90
18163;DHT22;9206;50.994;4.538;2023-04-24T09:39:46;15.80;99.90
18163;DHT22;9206;50.994;4.538;2023-04-24T09:42:58;14.50;99.90
18163;DHT22;9206;50.994;4.538;2023-04-24T09:45:50;13.60;99.90
18163;DHT22;9206;50.994;4.538;2023-04-24T09:48:48;13.10;99.90
18163;DHT22;9206;50.994;4.538;2023-04-24T09:51:38;12.90;99.90
18163;DHT22;9206;50.994;4.538;2023-04-24T09:54:32;12.70;99.90
18163;DHT22;9206;50.994;4.538;2023-04-24T09:57:35;14.30;99.90
18163;DHT22;9206;50.994;4.538;2023-04-24T10:00:42;15.10;99.90
18163;DHT22;9206;50.994;4.538;2023-04-24T10:03:30;14.40;99.90
18163;DHT22;9206;50.994;4.538;2023-04-24T10:06:37;13.70;99.90
18163;DHT22;9206;50.994;4.538;2023-04-24T10:09:28;13.10;99.90
18163;DHT22;9206;50.994;4.538;2023-04-24T10:12:17;12.60;99.90
18163;DHT22;9206;50.994;4.538;2023-04-24T10:15:18;12.60;99.90
18163;DHT22;9206;50.994;4.538;2023-04-24T10:18:08;12.60;99.90
18163;DHT22;9206;50.994;4.538;2023-04-24T10:21:00;12.60;99.90
18163;DHT22;9206;50.994;4.538;2023-04-24T10:27:24;12.20;99.90
18163;DHT22;9206;50.994;4.538;2023-04-24T10:34:08;12.30;99.90
18163;DHT22;9206;50.994;4.538;2023-04-24T10:40:35;12.60;99.90
18163;DHT22;9206;50.994;4.538;2023-04-24T10:44:01;13.00;99.90
18163;DHT22;9206;50.994;4.538;2023-04-24T10:47:01;13.30;99.90
18163;DHT22;9206;50.994;4.538;2023-04-24T10:49:52;13.10;99.90
18163;DHT22;9206;50.994;4.538;2023-04-24T10:52:49;13.10;99.90
18163;DHT22;9206;50.994;4.538;2023-04-24T10:55:45;12.90;99.90
18163;DHT22;9206;50.994;4.538;2023-04-24T10:58:37;13.00;99.90
18163;DHT22;9206;50.994;4.538;2023-04-24T11:02:04;13.60;99.90
18163;DHT22;9206;50.994;4.538;2023-04-24T11:08:45;14.60;99.90
18163;DHT22;9206;50.994;4.538;2023-04-24T11:11:38;16.80;99.90
18163;DHT22;9206;50.994;4.538;2023-04-24T11:18:20;19.10;99.90
18163;DHT22;9206;50.994;4.538;2023-04-24T11:21:44;18.60;99.90
18163;DHT22;9206;50.994;4.538;2023-04-24T11:25:13;17.90;99.90
18163;DHT22;9206;50.994;4.538;2023-04-24T11:28:06;17.30;99.90
18163;DHT22;9206;50.994;4.538;2023-04-24T11:31:35;16.50;99.90
18163;DHT22;9206;50.994;4.538;2023-04-24T11:34:35;15.60;99.90
18163;DHT22;9206;50.994;4.538;2023-04-24T11:37:44;15.00;99.90
18163;DHT22;9206;50.994;4.538;2023-04-24T11:40:39;16.00;99.90
18163;DHT22;9206;50.994;4.538;2023-04-24T11:43:29;17.30;99.90
18163;DHT22;9206;50.994;4.538;2023-04-24T11:46:17;17.90;99.90
18163;DHT22;9206;50.994;4.538;2023-04-24T11:49:21;17.60;99.90
18163;DHT22;9206;50.994;4.538;2023-04-24T11:52:19;17.50;99.90
18163;DHT22;9206;50.994;4.538;2023-04-24T11:55:28;17.70;99.90
18163;DHT22;9206;50.994;4.538;2023-04-24T11:58:37;18.40;99.90
18163;DHT22;9206;50.994;4.538;2023-04-24T12:03:14;17.90;99.90
18163;DHT22;9206;50.994;4.538;2023-04-24T12:05:19;17.50;99.90
18163;DHT22;9206;50.994;4.538;2023-04-24T12:08:28;17.20;99.90
18163;DHT22;9206;50.994;4.538;2023-04-24T12:15:10;16.20;99.90
18163;DHT22;9206;50.994;4.538;2023-04-24T12:18:01;16.40;99.90
18163;DHT22;9206;50.994;4.538;2023-04-24T12:20:51;15.90;99.90
18163;DHT22;9206;50.994;4.538;2023-04-24T12:23:42;15.80;99.90
18163;DHT22;9206;50.994;4.538;2023-04-24T12:26:43;15.80;99.90
18163;DHT22;9206;50.994;4.538;2023-04-24T12:29:30;16.30;99.90
18163;DHT22;9206;50.994;4.538;2023-04-24T12:32:19;16.30;99.90
18163;DHT22;9206;50.994;4.538;2023-04-24T12:35:13;16.20;99.90
18163;DHT22;9206;50.994;4.538;2023-04-24T12:38:11;15.80;99.90
18163;DHT22;9206;50.994;4.538;2023-04-24T12:41:03;15.60;99.90
18163;DHT22;9206;50.994;4.538;2023-04-24T12:43:51;15.40;99.90
18163;DHT22;9206;50.994;4.538;2023-04-24T12:46:41;15.30;99.90
18163;DHT22;9206;50.994;4.538;2023-04-24T12:49:37;15.20;99.90
18163;DHT22;9206;50.994;4.538;2023-04-24T12:52:26;14.90;99.90
18163;DHT22;9206;50.994;4.538;2023-04-24T12:55:18;14.70;99.90
18163;DHT22;9206;50.994;4.538;2023-04-24T12:58:05;14.60;99.90
18163;DHT22;9206;50.994;4.538;2023-04-24T13:00:56;14.60;99.90
18163;DHT22;9206;50.994;4.538;2023-04-24T13:03:44;14.60;99.90
18163;DHT22;9206;50.994;4.538;2023-04-24T13:06:33;14.50;99.90
18163;DHT22;9206;50.994;4.538;2023-04-24T13:09:34;14.70;99.90
18163;DHT22;9206;50.994;4.538;2023-04-24T13:12:38;14.90;99.90
18163;DHT22;9206;50.994;4.538;2023-04-24T13:15:34;15.50;99.90
18163;DHT22;9206;50.994;4.538;2023-04-24T13:18:36;16.00;99.90
18163;DHT22;9206;50.994;4.538;2023-04-24T13:21:31;16.30;99.90
18163;DHT22;9206;50.994;4.538;2023-04-24T13:24:56;15.80;99.90
18163;DHT22;9206;50.994;4.538;2023-04-24T13:27:45;16.00;99.90
18163;DHT22;9206;50.994;4.538;2023-04-24T13:30:36;16.60;99.90
18163;DHT22;9206;50.994;4.538;2023-04-24T13:33:30;16.60;99.90
18163;DHT22;9206;50.994;4.538;2023-04-24T13:36:26;16.70;99.90
18163;DHT22;9206;50.994;4.538;2023-04-24T13:39:19;17.30;99.90
18163;DHT22;9206;50.994;4.538;2023-04-24T13:42:08;16.80;99.90
18163;DHT22;9206;50.994;4.538;2023-04-24T13:45:00;17.10;99.90
18163;DHT22;9206;50.994;4.538;2023-04-24T13:47:48;17.40;99.90
18163;DHT22;9206;50.994;4.538;2023-04-24T13:50:55;17.60;99.90
18163;DHT22;9206;50.994;4.538;2023-04-24T13:53:43;17.80;99.90
18163;DHT22;9206;50.994;4.538;2023-04-24T13:56:38;17.80;99.90
18163;DHT22;9206;50.994;4.538;2023-04-24T14:02:55;17.50;99.90
18163;DHT22;9206;50.994;4.538;2023-04-24T14:05:46;17.20;99.90
18163;DHT22;9206;50.994;4.538;2023-04-24T14:08:33;17.00;99.90
18163;DHT22;9206;50.994;4.538;2023-04-24T14:15:20;16.20;99.90
18163;DHT22;9206;50.994;4.538;2023-04-24T14:21:47;16.20;99.90
18163;DHT22;9206;50.994;4.538;2023-04-24T14:24:49;16.40;99.90
18163;DHT22;9206;50.994;4.538;2023-04-24T14:28:12;16.60;99.90
18163;DHT22;9206;50.994;4.538;2023-04-24T14:31:22;16.90;99.90
18163;DHT22;9206;50.994;4.538;2023-04-24T14:34:24;16.90;99.90
18163;DHT22;9206;50.994;4.538;2023-04-24T14:37:15;16.90;99.90
18163;DHT22;9206;50.994;4.538;2023-04-24T14:40:09;16.80;99.90
18163;DHT22;9206;50.994;4.538;2023-04-24T14:42:59;16.70;99.90
18163;DHT22;9206;50.994;4.538;2023-04-24T14:45:52;16.00;99.90
18163;DHT22;9206;50.994;4.538;2023-04-24T14:48:47;15.50;99.90
18163;DHT22;9206;50.994;4.538;2023-04-24T14:51:44;15.40;99.90
18163;DHT22;9206;50.994;4.538;2023-04-24T14:54:45;15.70;99.90
18163;DHT22;9206;50.994;4.538;2023-04-24T14:57:33;16.10;99.90
18163;DHT22;9206;50.994;4.538;2023-04-24T15:00:23;16.50;99.90
18163;DHT22;9206;50.994;4.538;2023-04-24T15:03:18;16.10;99.90
18163;DHT22;9206;50.994;4.538;2023-04-24T15:06:09;16.00;99.90
18163;DHT22;9206;50.994;4.538;2023-04-24T15:09:01;15.90;99.90
18163;DHT22;9206;50.994;4.538;2023-04-24T15:12:08;15.80;99.90
18163;DHT22;9206;50.994;4.538;2023-04-24T15:18:40;15.20;99.90
18163;DHT22;9206;50.994;4.538;2023-04-24T15:21:48;15.20;99.90
18163;DHT22;9206;50.994;4.538;2023-04-24T15:29:02;15.10;99.90
18163;DHT22;9206;50.994;4.538;2023-04-24T15:32:59;14.90;99.90
18163;DHT22;9206;50.994;4.538;2023-04-24T15:35:54;14.80;99.90
18163;DHT22;9206;50.994;4.538;2023-04-24T16:14:28;13.80;99.90
18163;DHT22;9206;50.994;4.538;2023-04-24T16:21:13;13.60;99.90
18163;DHT22;9206;50.994;4.538;2023-04-24T16:35:59;13.40;99.90
18163;DHT22;9206;50.994;4.538;2023-04-24T16:50:44;13.30;99.90
18163;DHT22;9206;50.994;4.538;2023-04-24T16:56:51;13.20;99.90
18163;DHT22;9206;50.994;4.538;2023-04-24T17:04:49;12.90;99.90
18163;DHT22;9206;50.994;4.538;2023-04-24T17:07:42;13.00;99.90
18163;DHT22;9206;50.994;4.538;2023-04-24T17:12:09;13.00;99.90
18163;DHT22;9206;50.994;4.538;2023-04-24T17:22:35;13.10;99.90
18163;DHT22;9206;50.994;4.538;2023-04-24T17:25:32;13.20;99.90
18163;DHT22;9206;50.994;4.538;2023-04-24T17:28:52;12.90;99.90
18163;DHT22;9206;50.994;4.538;2023-04-24T17:31:57;12.70;99.90
18163;DHT22;9206;50.994;4.538;2023-04-24T17:34:52;12.50;99.90
18163;DHT22;9206;50.994;4.538;2023-04-24T17:41:22;12.00;99.90
18163;DHT22;9206;50.994;4.538;2023-04-24T19:07:26;9.90;99.90
18163;DHT22;9206;50.994;4.538;2023-04-24T19:10:39;9.90;99.90
18163;DHT22;9206;50.994;4.538;2023-04-24T19:14:07;9.90;99.90
18163;DHT22;9206;50.994;4.538;2023-04-24T19:17:28;9.90;99.90
18163;DHT22;9206;50.994;4.538;2023-04-24T19:20:37;9.90;99.90
18163;DHT22;9206;50.994;4.538;2023-04-24T19:23:58;9.90;99.90
18163;DHT22;9206;50.994;4.538;2023-04-24T19:27:08;9.80;99.90
18163;DHT22;9206;50.994;4.538;2023-04-24T19:30:46;9.80;99.90
18163;DHT22;9206;50.994;4.538;2023-04-24T19:33:47;9.70;99.90
18163;DHT22;9206;50.994;4.538;2023-04-24T19:37:17;9.70;99.90
18163;DHT22;9206;50.994;4.538;2023-04-24T19:46:51;9.60;99.90
18163;DHT22;9206;50.994;4.538;2023-04-24T19:49:47;9.50;99.90
18163;DHT22;9206;50.994;4.538;2023-04-24T19:56:29;9.50;99.90
18163;DHT22;9206;50.994;4.538;2023-04-24T19:59:42;9.40;99.90
18163;DHT22;9206;50.994;4.538;2023-04-24T20:06:00;9.40;99.90
18163;DHT22;9206;50.994;4.538;2023-04-24T20:09:29;9.40;99.90
18163;DHT22;9206;50.994;4.538;2023-04-24T20:12:47;9.40;99.90
18163;DHT22;9206;50.994;4.538;2023-04-24T20:15:46;9.30;99.90
18163;DHT22;9206;50.994;4.538;2023-04-24T20:18:34;9.30;99.90
18163;DHT22;9206;50.994;4.538;2023-04-24T20:21:26;9.40;99.90
18163;DHT22;9206;50.994;4.538;2023-04-24T20:24:17;9.40;99.90
18163;DHT22;9206;50.994;4.538;2023-04-24T20:27:18;9.40;99.90
18163;DHT22;9206;50.994;4.538;2023-04-24T20:30:51;9.40;99.90
18163;DHT22;9206;50.994;4.538;2023-04-24T20:33:44;9.40;99.90
18163;DHT22;9206;50.994;4.538;2023-04-24T20:36:33;9.30;99.90
18163;DHT22;9206;50.994;4.538;2023-04-24T20:43:58;9.30;99.90
18163;DHT22;9206;50.994;4.538;2023-04-24T20:46:52;9.20;99.90
18163;DHT22;9206;50.994;4.538;2023-04-24T20:49:39;9.20;99.90
18163;DHT22;9206;50.994;4.538;2023-04-24T20:52:32;9.20;99.90
18163;DHT22;9206;50.994;4.538;2023-04-24T20:55:22;9.20;99.90
18163;DHT22;9206;50.994;4.538;2023-04-24T20:58:16;9.20;99.90
18163;DHT22;9206;50.994;4.538;2023-04-24T21:01:07;9.20;99.90
18163;DHT22;9206;50.994;4.538;2023-04-24T21:03:58;9.20;99.90
18163;DHT22;9206;50.994;4.538;2023-04-24T21:07:01;9.20;99.90
18163;DHT22;9206;50.994;4.538;2023-04-24T21:09:59;9.20;99.90
18163;DHT22;9206;50.994;4.538;2023-04-24T21:12:52;9.10;99.90
18163;DHT22;9206;50.994;4.538;2023-04-24T21:15:40;9.10;99.90
18163;DHT22;9206;50.994;4.538;2023-04-24T21:18:28;9.10;99.90
18163;DHT22;9206;50.994;4.538;2023-04-24T21:24:38;9.10;99.90
18163;DHT22;9206;50.994;4.538;2023-04-24T21:27:33;9.00;99.90
18163;DHT22;9206;50.994;4.538;2023-04-24T21:30:28;9.00;99.90
18163;DHT22;9206;50.994;4.538;2023-04-24T22:43:11;7.60;99.90
18163;DHT22;9206;50.994;4.538;2023-04-24T22:50:17;7.60;99.90
